Time;durP1;ratioP1;P1;durP2;ratioP2;P2;SDS_P1;SDS_P2;PMS_P1;PMS_P2;Temp;Humidity;BMP_temperature;BMP_pressure;BME280_temperature;BME280_humidity;BME280_pressure;Samples;Min_cycle;Max_cycle;Signal;HPM_P1;HPM_P2
2023/04/21 00:02:14;;;;;;;10.00;6.57;;;;;;;10.39;48.11;93416.34;5002841;28;20115;-77
2023/04/21 00:04:44;;;;;;;7.80;5.93;;;;;;;10.41;48.45;93454.03;5004571;28;20034;-77
2023/04/21 00:07:10;;;;;;;9.05;7.07;;;;;;;10.14;48.95;93428.63;5003954;28;20026;-77
2023/04/21 00:09:35;;;;;;;12.23;7.03;;;;;;;10.36;48.69;93457.66;4999799;28;20025;-77
2023/04/21 00:12:00;;;;;;;12.35;6.93;;;;;;;10.05;48.51;93382.72;5003852;28;20033;-77
2023/04/21 00:14:26;;;;;;;9.13;6.63;;;;;;;10.49;47.96;93434.59;5005811;28;20041;-77
2023/04/21 00:16:52;;;;;;;7.32;6.55;;;;;;;10.52;48.25;93452.56;5005604;28;20040;-77
2023/04/21 00:19:18;;;;;;;12.20;8.02;;;;;;;10.39;48.65;93435.75;5005732;28;20044;-76
2023/04/21 00:21:44;;;;;;;11.48;7.93;;;;;;;10.35;48.34;93440.13;5003545;28;20256;-77
2023/04/21 00:24:09;;;;;;;10.35;6.88;;;;;;;10.23;48.51;93426.72;5004009;28;20034;-78
2023/04/21 00:26:35;;;;;;;9.75;5.78;;;;;;;10.26;48.45;93420.78;5005248;28;20105;-76
2023/04/21 00:29:00;;;;;;;7.72;6.60;;;;;;;10.37;47.94;93429.97;5006140;28;20034;-77
2023/04/21 00:31:26;;;;;;;9.10;5.18;;;;;;;10.47;47.65;93447.41;4998503;28;20677;-76
2023/04/21 00:33:52;;;;;;;6.68;5.82;;;;;;;10.39;48.05;93449.03;5005489;28;20109;-77
2023/04/21 00:36:18;;;;;;;11.07;6.30;;;;;;;10.29;48.36;93447.50;5004046;28;20549;-77
2023/04/21 00:38:43;;;;;;;11.00;6.53;;;;;;;10.04;48.44;93439.59;5003784;28;20068;-78
2023/04/21 00:41:09;;;;;;;8.65;6.05;;;;;;;10.07;48.95;93450.41;5005757;28;20045;-77
2023/04/21 00:43:34;;;;;;;8.00;6.15;;;;;;;10.13;48.54;93435.81;5005792;28;20034;-76
2023/04/21 00:45:59;;;;;;;9.75;5.85;;;;;;;10.06;48.31;93438.22;5005230;28;20084;-76
2023/04/21 00:48:26;;;;;;;9.60;5.70;;;;;;;10.07;48.45;93450.41;5005143;28;20120;-78
2023/04/21 00:50:51;;;;;;;6.75;5.45;;;;;;;10.02;48.46;93431.97;5003481;28;20049;-77
2023/04/21 00:53:17;;;;;;;9.57;6.63;;;;;;;10.04;48.40;93439.59;5006082;28;20046;-77
2023/04/21 00:55:44;;;;;;;8.30;6.22;;;;;;;10.02;48.38;93436.50;5004143;28;20545;-77
2023/04/21 00:58:10;;;;;;;9.20;6.60;;;;;;;10.03;48.63;93428.19;5007102;28;20021;-76
2023/04/21 01:00:37;;;;;;;14.15;6.95;;;;;;;10.22;48.52;93449.09;5004075;28;20032;-76
2023/04/21 01:03:04;;;;;;;8.07;5.72;;;;;;;10.36;48.36;93446.22;5003342;28;20038;-77
2023/04/21 01:05:30;;;;;;;7.57;6.78;;;;;;;10.31;48.21;93434.66;5004909;28;20567;-76
2023/04/21 01:07:56;;;;;;;7.43;5.65;;;;;;;10.39;48.23;93440.28;5011672;28;20045;-77
2023/04/21 01:10:21;;;;;;;7.68;6.03;;;;;;;10.36;48.15;93431.09;5004282;28;20543;-77
2023/04/21 01:12:47;;;;;;;10.77;6.55;;;;;;;10.33;47.91;93416.50;5008018;28;20068;-77
2023/04/21 01:15:14;;;;;;;9.52;6.07;;;;;;;10.39;48.26;93448.25;5007189;28;20060;-77
2023/04/21 01:17:39;;;;;;;9.75;6.70;;;;;;;10.36;48.66;93440.91;5008659;28;20418;-77
2023/04/21 01:20:12;;;;;;;6.90;6.03;;;;;;;10.17;48.42;93407.50;5011654;28;20037;-76
2023/04/21 01:22:38;;;;;;;9.80;7.82;;;;;;;10.40;48.51;93441.84;5007319;28;20053;-77
2023/04/21 01:25:04;;;;;;;11.68;7.45;;;;;;;10.40;48.20;93439.19;5005946;28;20081;-77
2023/04/21 01:27:30;;;;;;;8.02;5.82;;;;;;;10.22;48.31;93398.59;5013889;28;20192;-76
2023/04/21 01:29:56;;;;;;;9.65;6.25;;;;;;;10.38;48.57;93436.84;5004192;28;20076;-77
2023/04/21 01:32:25;;;;;;;7.15;6.45;;;;;;;10.43;48.07;93418.06;5017535;28;20030;-77
2023/04/21 01:34:52;;;;;;;9.77;6.38;;;;;;;10.26;47.88;93416.25;5008162;28;20037;-77
2023/04/21 01:37:20;;;;;;;8.18;6.93;;;;;;;10.43;47.78;93411.94;5004921;28;20437;-76
2023/04/21 01:39:53;;;;;;;8.77;7.00;;;;;;;10.30;48.03;93403.88;5006476;28;20025;-77
2023/04/21 01:42:20;;;;;;;7.95;6.00;;;;;;;10.63;47.78;93425.28;5007964;28;20492;-77
2023/04/21 01:44:48;;;;;;;8.45;5.93;;;;;;;10.63;47.49;93419.19;5007052;28;20428;-76
2023/04/21 01:47:14;;;;;;;9.38;5.75;;;;;;;10.56;47.35;93402.97;5008286;28;20036;-76
2023/04/21 01:49:39;;;;;;;8.68;6.18;;;;;;;10.62;47.33;93396.34;5007222;28;20045;-77
2023/04/21 01:52:05;;;;;;;7.97;5.78;;;;;;;10.65;47.31;93417.00;5005229;28;20208;-77
2023/04/21 01:54:30;;;;;;;8.52;6.70;;;;;;;10.46;47.70;93408.66;5008192;28;20101;-78
2023/04/21 01:56:57;;;;;;;5.90;5.30;;;;;;;10.39;47.81;93419.00;5006492;28;20483;-77
2023/04/21 01:59:22;;;;;;;9.10;5.97;;;;;;;10.27;48.09;93431.06;5006952;28;20095;-78
2023/04/21 02:01:48;;;;;;;7.90;5.90;;;;;;;10.05;48.47;93409.28;5007915;28;20443;-78
2023/04/21 02:04:13;;;;;;;8.88;6.80;;;;;;;9.92;48.57;93395.13;5006183;28;20079;-77
2023/04/21 02:06:39;;;;;;;8.38;6.40;;;;;;;10.00;49.10;93420.09;5006802;28;20017;-77
2023/04/21 02:09:05;;;;;;;7.63;6.53;;;;;;;9.68;49.43;93400.22;5008420;28;20069;-77
2023/04/21 02:11:30;;;;;;;7.47;6.68;;;;;;;10.03;49.41;93424.75;5011963;28;20072;-77
2023/04/21 02:13:55;;;;;;;9.38;6.35;;;;;;;10.10;48.54;93412.56;5008624;28;20596;-76
2023/04/21 02:16:25;;;;;;;9.43;6.55;;;;;;;9.83;49.79;93434.19;5005286;28;20536;-77
2023/04/21 02:18:54;;;;;;;9.38;6.63;;;;;;;9.58;50.13;93403.19;5006135;28;20112;-77
2023/04/21 02:21:23;;;;;;;9.55;7.15;;;;;;;9.48;50.50;93401.66;5007270;28;20591;-77
2023/04/21 02:23:48;;;;;;;9.13;6.35;;;;;;;9.63;50.47;93411.00;5005043;28;20805;-77
2023/04/21 02:26:14;;;;;;;13.98;6.95;;;;;;;9.74;50.46;93425.47;5007979;28;20040;-76
2023/04/21 02:28:40;;;;;;;9.68;7.20;;;;;;;9.83;50.41;93418.25;5007009;28;20034;-77
2023/04/21 02:31:05;;;;;;;9.82;7.70;;;;;;;10.01;50.04;93419.00;5007622;28;20048;-77
2023/04/21 02:33:30;;;;;;;11.90;7.75;;;;;;;9.80;49.96;93398.44;5006250;28;20029;-77
2023/04/21 02:35:56;;;;;;;12.00;6.70;;;;;;;9.97;50.01;93420.75;5008024;28;20048;-77
2023/04/21 02:38:21;;;;;;;8.95;7.93;;;;;;;9.84;50.57;93393.28;5002180;28;20041;-77
2023/04/21 02:40:46;;;;;;;9.65;8.00;;;;;;;9.86;50.29;93391.09;5003642;28;20045;-77
2023/04/21 02:43:15;;;;;;;11.68;6.72;;;;;;;9.93;49.99;93388.69;5001857;28;20026;-78
2023/04/21 02:45:41;;;;;;;8.73;6.60;;;;;;;10.33;49.71;93426.34;5010453;28;20037;-77
2023/04/21 02:48:06;;;;;;;9.32;7.05;;;;;;;10.23;50.03;93427.50;5007478;28;20041;-76
2023/04/21 02:50:32;;;;;;;9.57;7.80;;;;;;;10.13;49.57;93395.19;5000551;28;20496;-77
2023/04/21 02:52:57;;;;;;;10.05;7.22;;;;;;;10.12;50.04;93426.28;5004845;28;20046;-77
2023/04/21 02:55:23;;;;;;;12.00;7.65;;;;;;;9.79;50.97;93404.06;5008547;28;20504;-77
2023/04/21 02:57:49;;;;;;;10.30;8.63;;;;;;;9.85;50.96;93427.50;5006543;28;20156;-77
2023/04/21 03:00:15;;;;;;;9.75;7.47;;;;;;;9.87;51.19;93419.22;5005415;28;20048;-77
2023/04/21 03:02:40;;;;;;;9.02;7.40;;;;;;;9.92;50.99;93413.72;5005488;28;20037;-78
2023/04/21 03:05:06;;;;;;;11.75;7.28;;;;;;;9.86;50.85;93407.03;5008524;28;20038;-77
2023/04/21 03:07:31;;;;;;;9.45;8.15;;;;;;;9.92;50.78;93428.88;5012920;28;20558;-76
2023/04/21 03:09:57;;;;;;;14.05;8.45;;;;;;;9.89;50.85;93431.06;5008367;28;20103;-76
2023/04/21 03:12:22;;;;;;;10.80;7.63;;;;;;;9.75;51.40;93430.47;5004433;28;20088;-77
2023/04/21 03:14:48;;;;;;;10.90;7.38;;;;;;;9.72;51.21;93431.13;5004301;28;20065;-77
2023/04/21 03:17:13;;;;;;;13.73;7.85;;;;;;;9.77;51.07;93435.47;5004233;28;20991;-77
2023/04/21 03:19:39;;;;;;;9.77;7.65;;;;;;;9.67;51.45;93419.88;5004543;28;20034;-77
2023/04/21 03:22:05;;;;;;;9.85;7.22;;;;;;;9.64;51.43;93428.47;5005416;28;20075;-77
2023/04/21 03:24:30;;;;;;;8.45;6.25;;;;;;;9.63;51.56;93419.75;5005123;28;20013;-77
2023/04/21 03:26:56;;;;;;;11.00;8.02;;;;;;;9.72;51.19;93427.69;5004243;28;20041;-77
2023/04/21 03:29:22;;;;;;;10.23;7.25;;;;;;;9.59;51.61;93429.41;5006491;28;20411;-77
2023/04/21 03:31:47;;;;;;;9.38;6.93;;;;;;;9.60;51.46;93416.94;5006450;28;20064;-78
2023/04/21 03:34:12;;;;;;;8.75;7.72;;;;;;;9.60;51.64;93430.19;5005828;28;20091;-77
2023/04/21 03:36:38;;;;;;;10.88;7.75;;;;;;;9.57;51.47;93428.19;5004310;28;20029;-78
2023/04/21 03:39:03;;;;;;;10.20;7.45;;;;;;;9.55;51.82;93443.63;5005953;28;20327;-78
2023/04/21 03:41:29;;;;;;;10.32;7.80;;;;;;;9.56;51.56;93424.75;5005223;28;20114;-78
2023/04/21 03:43:54;;;;;;;11.50;7.68;;;;;;;9.62;51.83;93443.94;5005686;28;20137;-79
2023/04/21 03:46:21;;;;;;;10.45;7.22;;;;;;;9.62;51.79;93439.44;5012428;28;20511;-77
2023/04/21 03:48:47;;;;;;;9.85;7.78;;;;;;;9.52;51.46;93417.72;5007612;28;20439;-77
2023/04/21 03:51:13;;;;;;;14.73;9.30;;;;;;;9.65;51.23;93438.00;5003825;28;20216;-77
2023/04/21 03:53:39;;;;;;;11.38;9.02;;;;;;;9.53;51.00;93419.28;5004191;28;20576;-77
2023/04/21 03:56:04;;;;;;;11.48;8.43;;;;;;;9.44;51.67;93451.13;5003241;28;20133;-77
2023/04/21 03:58:30;;;;;;;10.15;8.25;;;;;;;9.59;51.39;93445.34;5005445;28;20033;-77
2023/04/21 04:00:56;;;;;;;11.90;9.20;;;;;;;9.42;51.36;93430.25;5006602;28;20065;-77
2023/04/21 04:03:21;;;;;;;10.68;8.70;;;;;;;9.53;51.41;93440.53;5006815;28;20044;-76
2023/04/21 04:05:46;;;;;;;10.82;8.63;;;;;;;9.45;51.64;93452.72;5007658;28;20473;-78
2023/04/21 04:08:12;;;;;;;10.50;8.20;;;;;;;9.34;52.04;93454.91;5005768;28;20025;-78
2023/04/21 04:10:37;;;;;;;10.80;8.52;;;;;;;9.41;51.69;93449.91;5003273;28;20038;-77
2023/04/21 04:13:03;;;;;;;10.75;8.18;;;;;;;9.54;51.54;93452.69;5006445;28;20088;-77
2023/04/21 04:15:29;;;;;;;14.02;9.02;;;;;;;9.38;51.35;93442.59;5005287;28;20059;-77
2023/04/21 04:17:54;;;;;;;10.05;8.02;;;;;;;9.35;51.48;93432.56;5004568;28;20155;-76
2023/04/21 04:20:20;;;;;;;10.20;7.93;;;;;;;9.58;51.42;93469.56;5003183;28;20061;-77
2023/04/21 04:22:46;;;;;;;13.18;8.93;;;;;;;9.41;52.05;93455.22;5004550;28;20507;-77
2023/04/21 04:25:13;;;;;;;13.48;8.65;;;;;;;9.67;51.58;93473.00;5003971;28;20491;-77
2023/04/21 04:27:39;;;;;;;12.73;8.73;;;;;;;9.58;51.42;93448.34;5006133;28;20029;-76
2023/04/21 04:30:05;;;;;;;11.30;9.40;;;;;;;9.77;51.12;93472.66;5003466;28;20042;-76
2023/04/21 04:32:32;;;;;;;13.60;8.15;;;;;;;9.68;51.14;93467.34;5006292;28;20042;-77
2023/04/21 04:34:57;;;;;;;11.18;9.35;;;;;;;9.66;51.48;93471.44;5003054;28;20053;-77
2023/04/21 04:37:24;;;;;;;11.65;8.52;;;;;;;9.80;51.68;93477.34;5003278;28;20033;-77
2023/04/21 04:39:52;;;;;;;11.55;8.25;;;;;;;9.79;51.58;93486.38;5000629;28;20368;-77
2023/04/21 04:42:19;;;;;;;15.77;8.73;;;;;;;9.69;51.40;93468.91;5005292;28;20064;-77
2023/04/21 04:44:45;;;;;;;10.38;9.27;;;;;;;9.74;51.49;93475.94;5005389;28;20067;-77
2023/04/21 04:47:11;;;;;;;10.95;8.63;;;;;;;9.85;51.21;93475.28;5010114;28;20053;-77
2023/04/21 04:49:37;;;;;;;11.40;8.35;;;;;;;9.74;51.32;93474.06;5005309;28;20508;-77
2023/04/21 04:52:02;;;;;;;17.70;10.20;;;;;;;9.93;51.77;93494.19;5008779;28;20032;-76
2023/04/21 04:54:28;;;;;;;10.02;8.52;;;;;;;9.93;52.28;93486.97;5007318;28;20025;-76
2023/04/21 04:56:54;;;;;;;11.20;8.57;;;;;;;9.86;51.90;93486.69;5005432;28;20095;-77
2023/04/21 04:59:19;;;;;;;9.80;8.63;;;;;;;9.79;51.91;93492.47;5005020;28;20033;-77
2023/04/21 05:01:45;;;;;;;9.95;8.68;;;;;;;9.84;52.42;93499.50;5006647;28;20377;-77
2023/04/21 05:04:10;;;;;;;11.63;8.40;;;;;;;9.93;51.82;93496.84;5006107;28;20024;-78
2023/04/21 05:06:36;;;;;;;10.32;9.23;;;;;;;9.95;51.65;93476.06;5007964;28;20029;-76
2023/04/21 05:09:04;;;;;;;14.48;8.85;;;;;;;9.89;52.26;93486.06;5007627;28;20087;-77
2023/04/21 05:11:30;;;;;;;14.82;9.85;;;;;;;9.82;51.95;93459.22;5008485;28;20041;-77
2023/04/21 05:13:56;;;;;;;10.55;9.55;;;;;;;10.02;51.43;93484.31;5007077;28;20400;-77
2023/04/21 05:16:21;;;;;;;12.98;9.48;;;;;;;10.11;51.90;93485.06;5015587;28;20106;-77
2023/04/21 05:18:49;;;;;;;12.52;10.02;;;;;;;9.93;51.92;93481.66;5007912;28;20136;-77
2023/04/21 05:21:22;;;;;;;11.63;8.93;;;;;;;10.18;51.62;93498.63;5007797;28;20088;-77
2023/04/21 05:23:47;;;;;;;12.52;9.88;;;;;;;9.83;52.62;93471.38;5005948;28;20093;-77
2023/04/21 05:26:12;;;;;;;15.07;9.85;;;;;;;10.00;52.39;93489.94;5009171;28;20623;-77
2023/04/21 05:28:38;;;;;;;9.65;8.40;;;;;;;9.87;52.63;93480.31;5005861;28;20040;-77
2023/04/21 05:31:04;;;;;;;12.38;8.85;;;;;;;9.88;53.00;93500.44;5007614;28;20118;-77
2023/04/21 05:33:30;;;;;;;13.90;8.52;;;;;;;9.92;53.77;93482.78;5007462;28;20022;-78
2023/04/21 05:35:56;;;;;;;9.68;8.40;;;;;;;10.02;52.73;93487.78;5006579;28;20487;-78
2023/04/21 05:38:21;;;;;;;11.38;10.00;;;;;;;10.19;52.65;93505.53;5005429;28;20041;-77
2023/04/21 05:40:54;;;;;;;18.42;9.85;;;;;;;9.77;52.87;93446.09;5007835;28;20116;-78
2023/04/21 05:43:20;;;;;;;11.32;8.40;;;;;;;9.91;53.21;93457.31;5009197;28;20031;-78
2023/04/21 05:45:45;;;;;;;13.00;9.38;;;;;;;10.05;52.85;93467.75;5005970;28;20029;-78
2023/04/21 05:48:10;;;;;;;12.50;9.25;;;;;;;10.11;52.34;93493.06;5005579;28;20606;-77
2023/04/21 05:50:36;;;;;;;10.48;9.27;;;;;;;10.05;53.05;93492.44;5008255;28;20381;-77
2023/04/21 05:53:01;;;;;;;12.27;8.90;;;;;;;10.16;53.05;93504.28;5007582;28;20033;-77
2023/04/21 05:55:26;;;;;;;12.35;9.20;;;;;;;10.06;53.21;93501.97;5006855;28;20045;-77
2023/04/21 05:57:52;;;;;;;10.75;9.52;;;;;;;10.05;53.86;93503.06;5004094;28;20500;-77
2023/04/21 06:00:17;;;;;;;13.07;10.15;;;;;;;9.77;54.55;93489.38;5005597;28;20483;-77
2023/04/21 06:02:43;;;;;;;10.82;9.25;;;;;;;9.90;54.42;93487.63;5005731;28;20034;-76
2023/04/21 06:05:08;;;;;;;13.65;9.48;;;;;;;9.86;54.10;93486.69;5007966;28;20556;-77
2023/04/21 06:07:36;;;;;;;16.05;10.57;;;;;;;9.94;54.39;93493.88;5009353;28;20552;-76
2023/04/21 06:10:03;;;;;;;12.98;9.70;;;;;;;9.70;55.17;93477.66;5004474;28;20060;-76
2023/04/21 06:12:28;;;;;;;14.43;10.43;;;;;;;9.72;55.56;93496.72;5000006;28;20040;-77
2023/04/21 06:14:56;;;;;;;12.35;10.20;;;;;;;9.70;56.63;93501.56;5004935;28;20046;-77
2023/04/21 06:17:22;;;;;;;12.93;9.75;;;;;;;9.64;55.58;93460.31;5008842;28;20118;-78
2023/04/21 06:19:57;;;;;;;15.27;10.45;;;;;;;9.91;55.34;93488.41;5004356;28;20119;-79
2023/04/21 06:22:23;;;;;;;11.82;10.18;;;;;;;10.18;54.56;93499.44;4996304;28;20038;-77
2023/04/21 06:24:48;;;;;;;12.15;10.23;;;;;;;10.00;54.16;93468.69;5006794;28;20032;-77
2023/04/21 06:27:14;;;;;;;14.13;9.77;;;;;;;9.88;54.28;93453.41;5005880;28;20037;-76
2023/04/21 06:29:41;;;;;;;14.15;9.80;;;;;;;10.14;53.55;93460.53;5004432;28;20045;-77
2023/04/21 06:32:07;;;;;;;11.68;8.82;;;;;;;10.48;53.32;93488.88;5008750;28;20120;-77
2023/04/21 06:34:32;;;;;;;11.15;9.18;;;;;;;10.61;52.97;93486.00;5008320;28;20068;-77
2023/04/21 06:36:57;;;;;;;13.43;8.82;;;;;;;10.62;52.83;93481.44;5007509;28;20037;-77
2023/04/21 06:39:23;;;;;;;11.73;8.48;;;;;;;10.78;53.12;93481.69;5009293;28;20517;-77
2023/04/21 06:41:48;;;;;;;10.57;9.05;;;;;;;10.82;52.43;93458.66;5004521;28;20099;-77
2023/04/21 06:44:14;;;;;;;11.45;9.05;;;;;;;10.86;51.52;93459.56;5005938;28;20112;-77
2023/04/21 06:46:40;;;;;;;14.68;9.85;;;;;;;11.05;51.41;93476.66;5005569;28;20033;-77
2023/04/21 06:49:08;;;;;;;13.98;9.45;;;;;;;11.24;52.41;93467.47;4999880;28;20030;-76
2023/04/21 06:51:34;;;;;;;16.30;9.65;;;;;;;11.36;50.33;93472.84;4998708;28;20159;-76
2023/04/21 06:54:00;;;;;;;14.27;9.35;;;;;;;11.33;50.64;93478.81;5004888;28;20045;-78
2023/04/21 06:56:29;;;;;;;12.73;9.10;;;;;;;11.33;50.22;93457.53;5004004;28;20064;-77
2023/04/21 06:58:55;;;;;;;11.93;8.85;;;;;;;11.59;50.33;93477.50;5009139;28;20060;-77
2023/04/21 07:01:21;;;;;;;15.20;9.85;;;;;;;11.51;50.54;93458.97;5004561;28;20320;-76
2023/04/21 07:03:46;;;;;;;10.15;8.90;;;;;;;11.58;50.23;93460.00;5004437;28;20021;-77
2023/04/21 07:06:12;;;;;;;11.68;8.75;;;;;;;11.73;49.31;93471.94;5005865;28;20096;-78
2023/04/21 07:08:38;;;;;;;11.25;9.32;;;;;;;11.54;49.72;93467.06;5004172;28;20117;-77
2023/04/21 07:11:03;;;;;;;10.48;9.30;;;;;;;11.40;50.14;93476.41;5005249;28;20535;-77
2023/04/21 07:13:28;;;;;;;13.75;8.48;;;;;;;11.27;51.23;93480.13;5005439;28;20034;-78
2023/04/21 07:15:54;;;;;;;11.98;8.27;;;;;;;11.29;50.80;93477.91;5003775;28;20407;-77
2023/04/21 07:18:19;;;;;;;14.65;8.60;;;;;;;11.30;50.82;93476.78;5006232;28;20626;-77
2023/04/21 07:20:45;;;;;;;9.30;8.18;;;;;;;11.45;51.14;93462.88;5004986;28;20516;-78
2023/04/21 07:23:11;;;;;;;10.05;8.15;;;;;;;11.62;50.75;93478.75;5005896;28;20073;-76
2023/04/21 07:25:36;;;;;;;9.98;8.23;;;;;;;11.68;50.20;93472.13;4996170;28;20046;-77
2023/04/21 07:28:02;;;;;;;11.45;8.57;;;;;;;11.70;49.73;93453.91;5004441;28;20647;-78
2023/04/21 07:30:29;;;;;;;9.70;8.05;;;;;;;11.84;49.94;93457.06;5011893;28;20056;-78
2023/04/21 07:32:54;;;;;;;10.98;7.80;;;;;;;12.07;49.78;93476.13;5004999;28;20095;-78
2023/04/21 07:35:20;;;;;;;10.43;8.05;;;;;;;12.19;48.90;93478.81;5003142;28;20439;-78
2023/04/21 07:37:46;;;;;;;11.75;8.13;;;;;;;12.16;48.79;93468.81;5006552;28;20033;-78
2023/04/21 07:40:11;;;;;;;12.82;8.00;;;;;;;11.99;48.99;93455.66;5004399;28;20037;-77
2023/04/21 07:42:36;;;;;;;9.55;8.25;;;;;;;11.96;48.99;93475.78;5004990;28;20352;-78
2023/04/21 07:45:03;;;;;;;11.50;8.55;;;;;;;11.75;49.15;93453.72;5006325;28;20160;-78
2023/04/21 07:47:29;;;;;;;9.00;7.63;;;;;;;12.00;49.07;93470.56;5006980;28;20037;-78
2023/04/21 07:49:54;;;;;;;10.73;8.35;;;;;;;11.81;49.39;93471.06;5004479;28;20073;-77
2023/04/21 07:52:20;;;;;;;12.52;8.25;;;;;;;11.89;48.89;93480.84;5005806;28;20022;-78
2023/04/21 07:54:45;;;;;;;12.57;8.43;;;;;;;11.96;48.94;93473.09;5005032;28;20049;-77
2023/04/21 07:57:11;;;;;;;10.63;8.00;;;;;;;11.80;48.54;93444.75;5005566;28;20037;-78
2023/04/21 07:59:36;;;;;;;11.27;8.35;;;;;;;12.09;48.80;93481.13;5005283;28;20033;-78
2023/04/21 08:02:01;;;;;;;9.93;7.65;;;;;;;12.14;48.30;93457.69;5007013;28;20026;-78
2023/04/21 08:04:27;;;;;;;9.07;7.13;;;;;;;12.26;48.01;93475.63;5006013;28;20149;-78
2023/04/21 08:06:52;;;;;;;11.38;8.18;;;;;;;12.32;48.08;93482.28;5005797;28;20572;-77
2023/04/21 08:09:18;;;;;;;11.27;7.35;;;;;;;12.11;48.38;93460.25;5003004;28;20128;-76
2023/04/21 08:11:43;;;;;;;11.98;7.85;;;;;;;12.14;48.43;93459.59;5006421;28;20050;-76
2023/04/21 08:14:10;;;;;;;10.57;8.35;;;;;;;12.19;48.76;93446.81;5006576;28;20121;-78
2023/04/21 08:16:37;;;;;;;9.32;7.05;;;;;;;12.32;47.60;93434.31;5005867;28;20037;-77
2023/04/21 08:19:02;;;;;;;8.95;6.88;;;;;;;12.52;47.13;93468.06;5004864;28;20947;-76
2023/04/21 08:21:28;;;;;;;8.77;7.88;;;;;;;12.10;47.42;93442.69;5013361;28;20024;-77
2023/04/21 08:23:54;;;;;;;11.35;7.38;;;;;;;12.30;47.99;93473.84;5006566;28;20512;-76
2023/04/21 08:26:22;;;;;;;12.07;7.90;;;;;;;12.38;47.71;93470.28;5017514;28;20167;-78
2023/04/21 08:28:48;;;;;;;9.27;7.75;;;;;;;12.28;47.91;93470.72;5004281;28;20087;-77
2023/04/21 08:31:14;;;;;;;9.07;8.18;;;;;;;12.16;48.50;93468.03;5005274;28;20037;-76
2023/04/21 08:33:40;;;;;;;11.25;7.95;;;;;;;12.02;48.58;93431.03;5006058;28;20028;-77
2023/04/21 08:36:05;;;;;;;15.18;8.40;;;;;;;12.22;48.66;93472.06;5004148;28;20034;-77
2023/04/21 08:38:31;;;;;;;8.90;7.97;;;;;;;12.37;47.89;93458.09;5004428;28;20374;-78
2023/04/21 08:40:58;;;;;;;10.10;8.35;;;;;;;12.40;48.16;93462.75;5006030;28;20118;-77
2023/04/21 08:43:24;;;;;;;9.90;7.28;;;;;;;12.43;46.46;93467.41;5005594;28;20038;-76
2023/04/21 08:45:50;;;;;;;11.10;7.63;;;;;;;12.24;47.63;93454.59;5006522;28;20053;-76
2023/04/21 08:48:19;;;;;;;14.98;8.15;;;;;;;12.28;48.50;93455.50;5005003;28;20568;-77
2023/04/21 08:50:47;;;;;;;12.68;7.90;;;;;;;12.28;47.73;93439.50;5004698;28;20042;-76
2023/04/21 08:53:12;;;;;;;10.25;7.95;;;;;;;12.53;47.28;93464.28;5004163;28;20030;-76
2023/04/21 08:55:40;;;;;;;13.63;7.50;;;;;;;12.46;47.09;93434.75;5004841;28;20341;-76
2023/04/21 08:58:07;;;;;;;11.00;7.18;;;;;;;12.54;47.08;93444.50;5004531;28;20518;-77
2023/04/21 09:00:34;;;;;;;12.02;7.28;;;;;;;12.76;47.53;93454.75;5004223;28;20469;-77
2023/04/21 09:03:01;;;;;;;13.52;7.60;;;;;;;12.72;47.45;93453.09;4993434;28;20044;-78
2023/04/21 09:05:36;;;;;;;16.85;8.60;;;;;;;12.70;47.05;93432.09;4968850;28;20048;-77
2023/04/21 09:13:28;;;;;;;9.65;7.32;;;;;;;12.87;46.55;93449.75;4949801;28;19948;-77
2023/04/21 09:15:54;;;;;;;20.98;8.23;;;;;;;12.67;47.42;93446.09;4994990;28;20030;-76
2023/04/21 09:18:25;;;;;;;8.27;6.50;;;;;;;12.78;46.29;93446.41;4993267;28;20044;-77
2023/04/21 09:21:04;;;;;;;8.52;7.55;;;;;;;12.68;46.40;93431.66;4993030;28;20161;-77
2023/04/21 09:23:29;;;;;;;10.48;7.38;;;;;;;12.85;46.69;93412.75;4971936;28;20042;-78
2023/04/21 09:25:55;;;;;;;8.18;6.60;;;;;;;13.19;46.01;93429.34;4988537;28;20045;-79
2023/04/21 09:28:20;;;;;;;9.23;6.38;;;;;;;13.34;45.35;93428.63;4976063;28;20030;-75
2023/04/21 09:30:47;;;;;;;7.13;6.28;;;;;;;13.32;45.27;93404.16;4977198;28;20039;-78
2023/04/21 09:33:16;;;;;;;7.15;5.57;;;;;;;13.50;43.63;93424.09;4978449;28;20046;-76
2023/04/21 09:35:42;;;;;;;8.50;5.90;;;;;;;13.37;44.09;93409.25;4977380;28;20069;-77
2023/04/21 09:38:11;;;;;;;7.40;6.22;;;;;;;13.58;44.48;93427.75;4973463;28;20101;-77
2023/04/21 09:40:37;;;;;;;9.40;6.55;;;;;;;13.61;44.78;93408.41;4974719;28;20034;-76
2023/04/21 09:43:03;;;;;;;7.00;6.28;;;;;;;13.64;44.08;93389.03;4980296;28;20084;-79
2023/04/21 09:45:30;;;;;;;7.75;5.82;;;;;;;13.75;43.55;93420.25;4986981;28;20849;-76
2023/04/21 09:47:58;;;;;;;7.32;6.47;;;;;;;13.86;44.08;93423.19;5008075;28;20575;-77
2023/04/21 09:50:24;;;;;;;6.78;6.03;;;;;;;13.75;42.89;93414.91;4995652;28;20136;-77
2023/04/21 09:52:52;;;;;;;8.80;6.35;;;;;;;13.57;43.66;93391.47;4996429;28;20038;-79
2023/04/21 09:55:18;;;;;;;8.30;6.50;;;;;;;13.99;43.67;93415.88;4994839;28;20219;-79
2023/04/21 09:57:47;;;;;;;5.15;4.60;;;;;;;14.00;41.63;93420.88;4975576;28;20061;-77
2023/04/21 10:00:13;;;;;;;6.28;4.85;;;;;;;14.01;43.35;93405.63;4978327;28;20042;-76
2023/04/21 10:02:59;;;;;;;8.98;5.68;;;;;;;13.97;42.41;93408.22;4979123;28;20427;-75
2023/04/21 10:05:25;;;;;;;7.28;6.45;;;;;;;14.00;43.02;93404.84;4981262;28;20046;-76
2023/04/21 10:07:51;;;;;;;8.50;5.78;;;;;;;14.16;42.81;93391.50;4993482;28;20031;-76
2023/04/21 10:10:30;;;;;;;6.88;6.18;;;;;;;14.45;42.96;93403.66;4976326;28;20527;-76
2023/04/21 10:12:57;;;;;;;9.88;5.85;;;;;;;14.17;41.78;93361.75;4962108;28;20054;-77
2023/04/21 10:15:34;;;;;;;6.32;4.70;;;;;;;14.42;41.59;93383.69;4958906;28;20035;-77
2023/04/21 10:18:20;;;;;;;5.65;4.28;;;;;;;14.62;41.24;93403.28;4952965;28;20563;-77
2023/04/21 10:20:56;;;;;;;4.93;4.38;;;;;;;14.72;40.29;93391.28;4958068;28;20039;-78
2023/04/21 10:23:30;;;;;;;6.13;4.35;;;;;;;14.59;39.66;93388.72;4958206;28;20059;-77
2023/04/21 10:26:10;;;;;;;6.32;4.78;;;;;;;14.80;39.85;93387.66;4956652;28;20050;-77
2023/04/21 10:29:03;;;;;;;10.60;5.70;;;;;;;14.98;40.15;93396.84;4956745;28;20031;-76
2023/04/21 10:31:30;;;;;;;6.22;5.28;;;;;;;14.67;40.07;93362.88;4959311;28;20605;-77
2023/04/21 10:34:05;;;;;;;12.70;5.85;;;;;;;14.81;41.63;93399.91;4973554;28;20057;-77
2023/04/21 10:36:31;;;;;;;8.45;5.32;;;;;;;14.68;41.37;93395.78;4973312;28;20062;-77
2023/04/21 10:39:04;;;;;;;8.05;5.82;;;;;;;14.35;42.77;93356.00;4977122;28;20030;-79
2023/04/21 10:41:31;;;;;;;7.07;6.00;;;;;;;14.45;42.55;93395.63;4973359;28;20049;-79
2023/04/21 10:43:58;;;;;;;8.18;5.22;;;;;;;14.58;42.99;93413.94;4976061;28;20500;-79
2023/04/21 10:46:38;;;;;;;7.25;5.82;;;;;;;14.60;43.19;93394.84;4978953;28;20450;-79
2023/04/21 10:49:09;;;;;;;8.38;4.95;;;;;;;14.71;42.08;93416.50;4993135;28;20551;-77
2023/04/21 10:52:01;;;;;;;6.57;5.15;;;;;;;14.78;42.07;93411.31;4960363;28;20058;-77
2023/04/21 10:54:45;;;;;;;5.45;4.60;;;;;;;14.79;42.08;93407.50;4969619;28;20042;-76
2023/04/21 10:57:16;;;;;;;8.07;4.70;;;;;;;14.71;41.64;93413.84;4978258;28;20064;-77
2023/04/21 10:59:42;;;;;;;7.03;5.40;;;;;;;14.41;41.47;93363.44;4978973;28;20046;-77
2023/04/21 11:02:13;;;;;;;5.43;4.40;;;;;;;14.69;41.65;93403.47;4977022;28;20046;-77
2023/04/21 11:04:43;;;;;;;7.15;5.32;;;;;;;14.74;41.47;93389.03;4978008;28;20049;-77
2023/04/21 11:07:13;;;;;;;7.70;5.15;;;;;;;14.76;41.30;93386.81;4983299;28;20507;-77
2023/04/21 11:09:40;;;;;;;6.63;5.45;;;;;;;14.79;41.10;93402.16;4965652;28;20982;-78
2023/04/21 11:12:10;;;;;;;10.57;5.53;;;;;;;14.89;40.97;93397.03;4975331;28;20066;-78
2023/04/21 11:14:38;;;;;;;8.10;4.97;;;;;;;14.97;40.92;93385.34;4966329;28;20559;-76
2023/04/21 11:17:09;;;;;;;7.57;6.20;;;;;;;15.12;40.64;93383.75;4966086;28;20097;-76
2023/04/21 11:19:37;;;;;;;7.20;5.05;;;;;;;15.28;39.54;93392.50;4970545;28;20045;-76
2023/04/21 11:22:04;;;;;;;12.77;5.10;;;;;;;14.96;38.92;93383.03;4971490;28;20034;-77
2023/04/21 11:24:33;;;;;;;6.22;4.70;;;;;;;14.98;39.36;93378.09;4968837;28;20438;-77
2023/04/21 11:27:02;;;;;;;7.97;4.75;;;;;;;15.18;38.52;93385.03;4965389;28;20046;-77
2023/04/21 11:29:28;;;;;;;10.20;5.82;;;;;;;15.15;39.07;93393.78;4969430;28;20046;-76
2023/04/21 11:31:54;;;;;;;6.65;4.75;;;;;;;15.26;39.32;93394.75;4966810;28;20046;-77
2023/04/21 11:34:20;;;;;;;10.27;5.28;;;;;;;15.22;39.46;93391.22;4966354;28;20061;-78
2023/04/21 11:36:47;;;;;;;6.32;4.57;;;;;;;15.11;39.20;93390.22;4969612;28;20500;-77